Accueil
METAR-TAF:

METAR-TAF

Aéroports :

Cranfield, Angleterre

latitude: 52-04N, longitude: 000-37W, altitude: 111 m

Observation

Le bulletin a été fait il y a 37 minutes, à 15:50 UTC
Vent 9 kt de sud/sud-ouest
Température 4°C
Humidité 87%
Pression 1017 hPa
Visibilité: 7000 m
Nuages fragmentés à une hauteur de 2700 ft

METAR: EGTC 211550Z 21009KT 7000 BKN027 04/02 Q1017

Heure: 16:27 (16:27 UTC)

Prévision

Le bulletin a été fait il y a 2 heures et 31 minutes, à 13:56 UTC
Prévision valable du 21 à 15 UTC au 21 à 19 UTC
Vent 10 kt de sud-ouest
Visibilité 10 km ou plus
Quelques nuages à une hauteur de 3000 ft
Temporairement
du 21 à 15 UTC au 21 à 19 UTC
Visibilité: 7000 m

TAF: EGTC 211356Z 2115/2119 22010KT 9999 FEW030 TEMPO 2115/2119 7000

Observations et prévisions météorologiques de plus de 4000 aéroports (messages METAR et TAF).

Les stations disponibles sont représentées par des disques jaunes et rouges sur la carte.

Passer la souris dessus pour voir le nom de la station.

Cliquer dessus pour voir les observations et prévisions météorologiques.

Pour changer de carte: cliquez sur les boutons verts avec une croix noire pour zoomer, sur le bouton vert avec un tiret pour effectuer un zoom arrière, ou sur les flèches vertes pour les cartes adjacentes.


METAR-TAF: